Terminal Aerodrome Forecast
Issued by NWS

Current Version | Previous Version | Graphics & Text | Print | Product List | Glossary On
Versions: 1 2 3 4 5 6 7 8 9 10 11 12 13 14 15 16 17 18 19 20 21 22 23 24 25 26 27 28 29 30 31 32 33 34 35 36
000
FTUS41 KRNK 122335
TAFLWB
TAF
KLWB 122335Z 1300/1324 00000KT P6SM BKN060
     FM130700 00000KT 4SM BR FEW025 SCT060 BKN200
     FM131200 24003KT P6SM SCT025 BKN060
     FM131500 24008KT P6SM BKN040=

USA.gov is the U.S. government's official web portal to all federal, state and local government web resources and services.